sensor_id;sensor_type;location;lat;lon;timestamp;P1;durP1;ratioP1;P2;durP2;ratioP2
68273;SDS011;55104;47.356;19.448;2023-07-16T00:02:10;7.75;;;3.85;;
68273;SDS011;55104;47.356;19.448;2023-07-16T00:05:12;7.97;;;3.30;;
68273;SDS011;55104;47.356;19.448;2023-07-16T00:08:15;8.47;;;3.50;;
68273;SDS011;55104;47.356;19.448;2023-07-16T00:11:17;7.63;;;3.23;;
68273;SDS011;55104;47.356;19.448;2023-07-16T00:14:19;7.93;;;3.28;;
68273;SDS011;55104;47.356;19.448;2023-07-16T00:17:21;8.85;;;3.35;;
68273;SDS011;55104;47.356;19.448;2023-07-16T00:20:23;8.52;;;3.38;;
68273;SDS011;55104;47.356;19.448;2023-07-16T00:23:25;7.20;;;3.50;;
68273;SDS011;55104;47.356;19.448;2023-07-16T00:26:27;7.83;;;3.43;;
68273;SDS011;55104;47.356;19.448;2023-07-16T00:29:29;7.53;;;3.53;;
68273;SDS011;55104;47.356;19.448;2023-07-16T00:32:31;10.20;;;3.47;;
68273;SDS011;55104;47.356;19.448;2023-07-16T00:35:33;7.40;;;3.60;;
68273;SDS011;55104;47.356;19.448;2023-07-16T00:38:35;7.70;;;4.13;;
68273;SDS011;55104;47.356;19.448;2023-07-16T00:41:37;8.87;;;3.80;;
68273;SDS011;55104;47.356;19.448;2023-07-16T00:44:39;11.27;;;3.60;;
68273;SDS011;55104;47.356;19.448;2023-07-16T00:47:42;8.73;;;3.80;;
68273;SDS011;55104;47.356;19.448;2023-07-16T00:50:45;7.15;;;3.42;;
68273;SDS011;55104;47.356;19.448;2023-07-16T00:53:48;8.30;;;4.07;;
68273;SDS011;55104;47.356;19.448;2023-07-16T00:56:51;9.47;;;3.47;;
68273;SDS011;55104;47.356;19.448;2023-07-16T00:59:53;8.15;;;3.78;;
68273;SDS011;55104;47.356;19.448;2023-07-16T01:02:55;7.85;;;3.70;;
68273;SDS011;55104;47.356;19.448;2023-07-16T01:06:04;10.38;;;4.43;;
68273;SDS011;55104;47.356;19.448;2023-07-16T01:09:20;9.07;;;3.73;;
68273;SDS011;55104;47.356;19.448;2023-07-16T01:12:22;8.10;;;4.17;;
68273;SDS011;55104;47.356;19.448;2023-07-16T01:15:25;9.95;;;4.85;;
68273;SDS011;55104;47.356;19.448;2023-07-16T01:18:27;8.10;;;4.00;;
68273;SDS011;55104;47.356;19.448;2023-07-16T01:21:37;9.18;;;4.03;;
68273;SDS011;55104;47.356;19.448;2023-07-16T01:27:57;11.17;;;4.23;;
68273;SDS011;55104;47.356;19.448;2023-07-16T01:31:03;8.32;;;4.70;;
68273;SDS011;55104;47.356;19.448;2023-07-16T01:34:05;10.48;;;4.90;;
68273;SDS011;55104;47.356;19.448;2023-07-16T01:37:07;8.57;;;4.35;;
68273;SDS011;55104;47.356;19.448;2023-07-16T01:40:10;11.20;;;4.73;;
68273;SDS011;55104;47.356;19.448;2023-07-16T01:43:13;9.80;;;4.60;;
68273;SDS011;55104;47.356;19.448;2023-07-16T01:46:15;11.98;;;5.18;;
68273;SDS011;55104;47.356;19.448;2023-07-16T01:49:17;9.02;;;5.00;;
68273;SDS011;55104;47.356;19.448;2023-07-16T01:52:19;8.85;;;4.60;;
68273;SDS011;55104;47.356;19.448;2023-07-16T01:55:21;11.90;;;4.93;;
68273;SDS011;55104;47.356;19.448;2023-07-16T01:58:24;11.10;;;5.40;;
68273;SDS011;55104;47.356;19.448;2023-07-16T02:01:26;9.15;;;4.40;;
68273;SDS011;55104;47.356;19.448;2023-07-16T02:04:28;9.13;;;4.50;;
68273;SDS011;55104;47.356;19.448;2023-07-16T02:07:32;9.82;;;4.90;;
68273;SDS011;55104;47.356;19.448;2023-07-16T02:10:34;9.93;;;5.50;;
68273;SDS011;55104;47.356;19.448;2023-07-16T02:13:36;9.13;;;4.80;;
68273;SDS011;55104;47.356;19.448;2023-07-16T02:16:38;9.52;;;4.53;;
68273;SDS011;55104;47.356;19.448;2023-07-16T02:19:41;11.13;;;5.22;;
68273;SDS011;55104;47.356;19.448;2023-07-16T02:22:44;9.93;;;4.85;;
68273;SDS011;55104;47.356;19.448;2023-07-16T02:25:46;8.30;;;4.27;;
68273;SDS011;55104;47.356;19.448;2023-07-16T02:28:51;9.40;;;4.83;;
68273;SDS011;55104;47.356;19.448;2023-07-16T02:31:53;8.85;;;4.22;;
68273;SDS011;55104;47.356;19.448;2023-07-16T02:34:55;11.38;;;4.88;;
68273;SDS011;55104;47.356;19.448;2023-07-16T02:37:57;8.20;;;3.97;;
68273;SDS011;55104;47.356;19.448;2023-07-16T02:41:00;10.13;;;4.40;;
68273;SDS011;55104;47.356;19.448;2023-07-16T02:44:04;9.00;;;4.43;;
68273;SDS011;55104;47.356;19.448;2023-07-16T02:47:07;9.18;;;4.25;;
68273;SDS011;55104;47.356;19.448;2023-07-16T02:50:09;9.23;;;4.50;;
68273;SDS011;55104;47.356;19.448;2023-07-16T02:53:12;9.63;;;4.78;;
68273;SDS011;55104;47.356;19.448;2023-07-16T02:56:14;11.73;;;4.40;;
68273;SDS011;55104;47.356;19.448;2023-07-16T02:59:16;10.23;;;4.57;;
68273;SDS011;55104;47.356;19.448;2023-07-16T03:02:18;8.80;;;4.38;;
68273;SDS011;55104;47.356;19.448;2023-07-16T03:05:21;10.35;;;4.70;;
68273;SDS011;55104;47.356;19.448;2023-07-16T03:08:24;9.20;;;4.40;;
68273;SDS011;55104;47.356;19.448;2023-07-16T03:11:31;9.13;;;4.37;;
68273;SDS011;55104;47.356;19.448;2023-07-16T03:14:33;12.77;;;4.40;;
68273;SDS011;55104;47.356;19.448;2023-07-16T03:17:35;11.43;;;3.90;;
68273;SDS011;55104;47.356;19.448;2023-07-16T03:20:37;8.27;;;4.38;;
68273;SDS011;55104;47.356;19.448;2023-07-16T03:23:39;10.25;;;4.70;;
68273;SDS011;55104;47.356;19.448;2023-07-16T03:26:41;8.17;;;4.47;;
68273;SDS011;55104;47.356;19.448;2023-07-16T03:29:43;9.97;;;4.33;;
68273;SDS011;55104;47.356;19.448;2023-07-16T03:32:49;9.93;;;4.63;;
68273;SDS011;55104;47.356;19.448;2023-07-16T03:35:57;9.30;;;4.25;;
68273;SDS011;55104;47.356;19.448;2023-07-16T03:38:59;8.63;;;4.13;;
68273;SDS011;55104;47.356;19.448;2023-07-16T03:42:01;9.13;;;4.37;;
68273;SDS011;55104;47.356;19.448;2023-07-16T03:45:03;10.93;;;4.73;;
68273;SDS011;55104;47.356;19.448;2023-07-16T03:48:06;10.70;;;4.38;;
68273;SDS011;55104;47.356;19.448;2023-07-16T03:51:08;7.25;;;3.90;;
68273;SDS011;55104;47.356;19.448;2023-07-16T03:54:10;8.98;;;4.32;;
68273;SDS011;55104;47.356;19.448;2023-07-16T03:57:12;9.33;;;4.73;;
68273;SDS011;55104;47.356;19.448;2023-07-16T04:00:14;11.63;;;4.33;;
68273;SDS011;55104;47.356;19.448;2023-07-16T04:03:23;10.30;;;4.47;;
68273;SDS011;55104;47.356;19.448;2023-07-16T04:06:25;8.07;;;4.25;;
68273;SDS011;55104;47.356;19.448;2023-07-16T04:09:28;9.60;;;4.53;;
68273;SDS011;55104;47.356;19.448;2023-07-16T04:12:30;10.50;;;4.87;;
68273;SDS011;55104;47.356;19.448;2023-07-16T04:15:33;10.30;;;4.50;;
68273;SDS011;55104;47.356;19.448;2023-07-16T04:18:35;8.77;;;4.47;;
68273;SDS011;55104;47.356;19.448;2023-07-16T04:21:37;10.05;;;3.80;;
68273;SDS011;55104;47.356;19.448;2023-07-16T04:24:40;7.57;;;4.10;;
68273;SDS011;55104;47.356;19.448;2023-07-16T04:27:42;11.10;;;4.90;;
68273;SDS011;55104;47.356;19.448;2023-07-16T04:30:45;9.33;;;4.07;;
68273;SDS011;55104;47.356;19.448;2023-07-16T04:33:47;8.50;;;4.25;;
68273;SDS011;55104;47.356;19.448;2023-07-16T04:36:49;8.10;;;4.00;;
68273;SDS011;55104;47.356;19.448;2023-07-16T04:39:51;11.23;;;4.22;;
68273;SDS011;55104;47.356;19.448;2023-07-16T04:42:53;10.43;;;4.00;;
68273;SDS011;55104;47.356;19.448;2023-07-16T04:45:55;8.03;;;4.03;;
68273;SDS011;55104;47.356;19.448;2023-07-16T04:48:57;7.53;;;3.67;;
68273;SDS011;55104;47.356;19.448;2023-07-16T04:51:59;6.85;;;3.55;;
68273;SDS011;55104;47.356;19.448;2023-07-16T04:55:01;11.25;;;4.22;;
68273;SDS011;55104;47.356;19.448;2023-07-16T04:58:04;9.00;;;3.93;;
68273;SDS011;55104;47.356;19.448;2023-07-16T05:01:07;7.07;;;3.80;;
68273;SDS011;55104;47.356;19.448;2023-07-16T05:04:09;8.75;;;3.97;;
68273;SDS011;55104;47.356;19.448;2023-07-16T05:07:11;7.35;;;3.85;;
68273;SDS011;55104;47.356;19.448;2023-07-16T05:10:13;9.23;;;4.10;;
68273;SDS011;55104;47.356;19.448;2023-07-16T05:13:15;8.67;;;3.97;;
68273;SDS011;55104;47.356;19.448;2023-07-16T05:16:17;7.83;;;3.73;;
68273;SDS011;55104;47.356;19.448;2023-07-16T05:19:20;11.45;;;4.50;;
68273;SDS011;55104;47.356;19.448;2023-07-16T05:22:22;10.02;;;4.13;;
68273;SDS011;55104;47.356;19.448;2023-07-16T05:25:24;8.70;;;4.38;;
68273;SDS011;55104;47.356;19.448;2023-07-16T05:28:26;7.63;;;3.80;;
68273;SDS011;55104;47.356;19.448;2023-07-16T05:31:28;8.30;;;4.17;;
68273;SDS011;55104;47.356;19.448;2023-07-16T05:34:31;7.38;;;3.80;;
68273;SDS011;55104;47.356;19.448;2023-07-16T05:37:33;7.68;;;4.20;;
68273;SDS011;55104;47.356;19.448;2023-07-16T05:40:35;8.00;;;4.55;;
68273;SDS011;55104;47.356;19.448;2023-07-16T05:43:37;8.20;;;4.50;;
68273;SDS011;55104;47.356;19.448;2023-07-16T05:46:39;8.10;;;4.40;;
68273;SDS011;55104;47.356;19.448;2023-07-16T05:49:41;8.20;;;4.55;;
68273;SDS011;55104;47.356;19.448;2023-07-16T05:52:43;7.35;;;4.20;;
68273;SDS011;55104;47.356;19.448;2023-07-16T05:55:45;8.98;;;4.05;;
68273;SDS011;55104;47.356;19.448;2023-07-16T05:58:47;7.30;;;4.10;;
68273;SDS011;55104;47.356;19.448;2023-07-16T06:01:49;9.63;;;4.50;;
68273;SDS011;55104;47.356;19.448;2023-07-16T06:04:51;7.95;;;4.32;;
68273;SDS011;55104;47.356;19.448;2023-07-16T06:07:53;7.55;;;4.18;;
68273;SDS011;55104;47.356;19.448;2023-07-16T06:10:55;8.50;;;4.57;;
68273;SDS011;55104;47.356;19.448;2023-07-16T06:13:57;8.57;;;4.33;;
68273;SDS011;55104;47.356;19.448;2023-07-16T06:16:59;8.37;;;4.40;;
68273;SDS011;55104;47.356;19.448;2023-07-16T06:20:02;11.18;;;4.18;;
68273;SDS011;55104;47.356;19.448;2023-07-16T06:23:05;9.18;;;4.40;;
68273;SDS011;55104;47.356;19.448;2023-07-16T06:26:07;9.55;;;4.60;;
68273;SDS011;55104;47.356;19.448;2023-07-16T06:29:09;7.67;;;4.33;;
68273;SDS011;55104;47.356;19.448;2023-07-16T06:32:11;7.50;;;4.27;;
68273;SDS011;55104;47.356;19.448;2023-07-16T06:35:13;8.15;;;4.60;;
68273;SDS011;55104;47.356;19.448;2023-07-16T06:38:15;8.65;;;4.72;;
68273;SDS011;55104;47.356;19.448;2023-07-16T06:41:17;8.27;;;4.85;;
68273;SDS011;55104;47.356;19.448;2023-07-16T06:44:21;9.43;;;4.77;;
68273;SDS011;55104;47.356;19.448;2023-07-16T06:47:24;9.93;;;4.23;;
68273;SDS011;55104;47.356;19.448;2023-07-16T06:50:26;7.80;;;4.55;;
68273;SDS011;55104;47.356;19.448;2023-07-16T06:53:28;8.43;;;4.43;;
68273;SDS011;55104;47.356;19.448;2023-07-16T06:56:30;7.78;;;4.20;;
68273;SDS011;55104;47.356;19.448;2023-07-16T06:59:32;8.73;;;4.17;;
68273;SDS011;55104;47.356;19.448;2023-07-16T07:02:34;8.77;;;4.10;;
68273;SDS011;55104;47.356;19.448;2023-07-16T07:05:40;8.20;;;4.30;;
68273;SDS011;55104;47.356;19.448;2023-07-16T07:08:43;7.75;;;4.18;;
68273;SDS011;55104;47.356;19.448;2023-07-16T07:11:44;8.43;;;4.07;;
68273;SDS011;55104;47.356;19.448;2023-07-16T07:14:47;8.60;;;4.00;;
68273;SDS011;55104;47.356;19.448;2023-07-16T07:17:49;8.40;;;4.17;;
68273;SDS011;55104;47.356;19.448;2023-07-16T07:20:53;10.27;;;4.70;;
68273;SDS011;55104;47.356;19.448;2023-07-16T07:23:56;9.52;;;4.50;;
68273;SDS011;55104;47.356;19.448;2023-07-16T07:26:58;8.27;;;4.00;;
68273;SDS011;55104;47.356;19.448;2023-07-16T07:29:59;7.83;;;4.23;;
68273;SDS011;55104;47.356;19.448;2023-07-16T07:33:02;9.87;;;4.37;;
68273;SDS011;55104;47.356;19.448;2023-07-16T07:36:05;8.50;;;4.20;;
68273;SDS011;55104;47.356;19.448;2023-07-16T07:39:07;8.60;;;4.50;;
68273;SDS011;55104;47.356;19.448;2023-07-16T07:42:10;9.13;;;4.22;;
68273;SDS011;55104;47.356;19.448;2023-07-16T07:45:12;9.07;;;4.03;;
68273;SDS011;55104;47.356;19.448;2023-07-16T07:48:14;8.00;;;4.37;;
68273;SDS011;55104;47.356;19.448;2023-07-16T07:51:16;7.47;;;3.80;;
68273;SDS011;55104;47.356;19.448;2023-07-16T07:54:19;10.73;;;4.05;;
68273;SDS011;55104;47.356;19.448;2023-07-16T07:57:21;8.30;;;3.65;;
68273;SDS011;55104;47.356;19.448;2023-07-16T08:00:23;6.40;;;3.40;;
68273;SDS011;55104;47.356;19.448;2023-07-16T08:03:25;6.70;;;3.30;;
68273;SDS011;55104;47.356;19.448;2023-07-16T08:06:28;6.47;;;3.40;;
68273;SDS011;55104;47.356;19.448;2023-07-16T08:09:30;8.63;;;3.47;;
68273;SDS011;55104;47.356;19.448;2023-07-16T08:12:32;6.95;;;2.80;;
68273;SDS011;55104;47.356;19.448;2023-07-16T08:15:34;6.10;;;3.00;;
68273;SDS011;55104;47.356;19.448;2023-07-16T08:18:36;8.07;;;3.17;;
68273;SDS011;55104;47.356;19.448;2023-07-16T08:21:38;7.30;;;3.10;;
68273;SDS011;55104;47.356;19.448;2023-07-16T08:24:40;7.38;;;2.92;;
68273;SDS011;55104;47.356;19.448;2023-07-16T08:27:42;6.93;;;3.10;;
68273;SDS011;55104;47.356;19.448;2023-07-16T08:30:47;7.10;;;3.43;;
68273;SDS011;55104;47.356;19.448;2023-07-16T08:33:52;6.50;;;3.13;;
68273;SDS011;55104;47.356;19.448;2023-07-16T08:36:54;7.15;;;3.17;;
68273;SDS011;55104;47.356;19.448;2023-07-16T08:39:56;6.65;;;3.25;;
68273;SDS011;55104;47.356;19.448;2023-07-16T08:42:58;9.30;;;3.60;;
68273;SDS011;55104;47.356;19.448;2023-07-16T08:46:01;6.47;;;3.20;;
68273;SDS011;55104;47.356;19.448;2023-07-16T08:49:03;8.13;;;3.37;;
68273;SDS011;55104;47.356;19.448;2023-07-16T08:52:08;7.45;;;3.70;;
68273;SDS011;55104;47.356;19.448;2023-07-16T08:55:11;10.68;;;3.20;;
68273;SDS011;55104;47.356;19.448;2023-07-16T08:58:13;10.38;;;3.22;;
68273;SDS011;55104;47.356;19.448;2023-07-16T09:01:18;9.67;;;3.30;;
68273;SDS011;55104;47.356;19.448;2023-07-16T09:04:24;7.73;;;3.60;;
68273;SDS011;55104;47.356;19.448;2023-07-16T09:07:27;7.00;;;3.08;;
68273;SDS011;55104;47.356;19.448;2023-07-16T09:10:29;8.00;;;3.10;;
68273;SDS011;55104;47.356;19.448;2023-07-16T09:13:31;5.97;;;3.08;;
68273;SDS011;55104;47.356;19.448;2023-07-16T09:16:33;7.80;;;3.00;;
68273;SDS011;55104;47.356;19.448;2023-07-16T09:19:36;7.27;;;3.50;;
68273;SDS011;55104;47.356;19.448;2023-07-16T09:22:38;7.15;;;3.20;;
68273;SDS011;55104;47.356;19.448;2023-07-16T09:25:40;7.47;;;3.40;;
68273;SDS011;55104;47.356;19.448;2023-07-16T09:28:47;7.85;;;3.67;;
68273;SDS011;55104;47.356;19.448;2023-07-16T09:31:57;7.87;;;3.70;;
68273;SDS011;55104;47.356;19.448;2023-07-16T09:35:05;6.70;;;3.60;;
68273;SDS011;55104;47.356;19.448;2023-07-16T09:38:14;7.30;;;4.22;;
68273;SDS011;55104;47.356;19.448;2023-07-16T09:41:17;10.43;;;4.28;;
68273;SDS011;55104;47.356;19.448;2023-07-16T09:44:20;9.38;;;3.88;;
68273;SDS011;55104;47.356;19.448;2023-07-16T09:47:22;8.53;;;5.00;;
68273;SDS011;55104;47.356;19.448;2023-07-16T09:50:31;8.67;;;4.33;;
68273;SDS011;55104;47.356;19.448;2023-07-16T09:53:35;7.60;;;4.13;;
68273;SDS011;55104;47.356;19.448;2023-07-16T09:56:43;8.80;;;4.30;;
68273;SDS011;55104;47.356;19.448;2023-07-16T09:59:48;8.35;;;4.20;;
68273;SDS011;55104;47.356;19.448;2023-07-16T10:02:53;11.90;;;4.30;;
68273;SDS011;55104;47.356;19.448;2023-07-16T10:06:05;8.93;;;4.90;;
68273;SDS011;55104;47.356;19.448;2023-07-16T10:09:11;9.75;;;5.70;;
68273;SDS011;55104;47.356;19.448;2023-07-16T10:12:13;9.00;;;5.90;;
68273;SDS011;55104;47.356;19.448;2023-07-16T10:15:24;9.45;;;5.57;;
68273;SDS011;55104;47.356;19.448;2023-07-16T10:18:29;8.40;;;5.63;;
68273;SDS011;55104;47.356;19.448;2023-07-16T10:21:36;13.53;;;5.70;;
68273;SDS011;55104;47.356;19.448;2023-07-16T10:24:40;10.15;;;6.40;;
68273;SDS011;55104;47.356;19.448;2023-07-16T10:27:42;9.20;;;5.85;;
68273;SDS011;55104;47.356;19.448;2023-07-16T10:30:48;9.20;;;5.85;;
68273;SDS011;55104;47.356;19.448;2023-07-16T10:37:10;9.40;;;5.90;;
68273;SDS011;55104;47.356;19.448;2023-07-16T10:40:12;8.68;;;5.32;;
68273;SDS011;55104;47.356;19.448;2023-07-16T10:43:15;9.45;;;6.00;;
68273;SDS011;55104;47.356;19.448;2023-07-16T10:46:17;8.73;;;5.57;;
68273;SDS011;55104;47.356;19.448;2023-07-16T10:49:28;9.90;;;5.63;;
68273;SDS011;55104;47.356;19.448;2023-07-16T10:52:30;10.07;;;5.90;;
68273;SDS011;55104;47.356;19.448;2023-07-16T10:55:32;9.68;;;6.40;;
68273;SDS011;55104;47.356;19.448;2023-07-16T10:58:39;10.20;;;5.78;;
68273;SDS011;55104;47.356;19.448;2023-07-16T11:01:42;9.82;;;5.97;;
68273;SDS011;55104;47.356;19.448;2023-07-16T11:04:45;8.63;;;5.73;;
68273;SDS011;55104;47.356;19.448;2023-07-16T11:07:48;9.07;;;5.77;;
68273;SDS011;55104;47.356;19.448;2023-07-16T11:10:56;10.15;;;5.78;;
68273;SDS011;55104;47.356;19.448;2023-07-16T11:13:58;10.52;;;6.30;;
68273;SDS011;55104;47.356;19.448;2023-07-16T11:17:04;10.80;;;5.78;;
68273;SDS011;55104;47.356;19.448;2023-07-16T11:20:08;9.53;;;5.80;;
68273;SDS011;55104;47.356;19.448;2023-07-16T11:23:11;8.93;;;5.80;;
68273;SDS011;55104;47.356;19.448;2023-07-16T11:26:15;9.90;;;5.45;;
68273;SDS011;55104;47.356;19.448;2023-07-16T11:29:18;10.48;;;5.90;;
68273;SDS011;55104;47.356;19.448;2023-07-16T11:32:27;9.55;;;5.70;;
68273;SDS011;55104;47.356;19.448;2023-07-16T11:35:34;9.03;;;5.73;;
68273;SDS011;55104;47.356;19.448;2023-07-16T11:38:36;8.93;;;5.77;;
68273;SDS011;55104;47.356;19.448;2023-07-16T11:41:39;9.32;;;6.18;;
68273;SDS011;55104;47.356;19.448;2023-07-16T11:44:41;10.10;;;5.78;;
68273;SDS011;55104;47.356;19.448;2023-07-16T11:47:43;10.23;;;6.18;;
68273;SDS011;55104;47.356;19.448;2023-07-16T11:50:46;9.60;;;6.23;;
68273;SDS011;55104;47.356;19.448;2023-07-16T11:53:48;9.07;;;6.17;;
68273;SDS011;55104;47.356;19.448;2023-07-16T11:56:50;11.45;;;7.03;;
68273;SDS011;55104;47.356;19.448;2023-07-16T11:59:52;10.85;;;6.82;;
68273;SDS011;55104;47.356;19.448;2023-07-16T12:02:54;8.85;;;6.32;;
68273;SDS011;55104;47.356;19.448;2023-07-16T12:05:56;11.73;;;7.57;;
68273;SDS011;55104;47.356;19.448;2023-07-16T12:08:58;9.90;;;7.40;;
68273;SDS011;55104;47.356;19.448;2023-07-16T12:12:00;10.40;;;7.28;;
68273;SDS011;55104;47.356;19.448;2023-07-16T12:15:03;10.57;;;7.70;;
68273;SDS011;55104;47.356;19.448;2023-07-16T12:18:06;11.45;;;6.95;;
68273;SDS011;55104;47.356;19.448;2023-07-16T12:21:09;10.77;;;7.33;;
68273;SDS011;55104;47.356;19.448;2023-07-16T12:24:11;11.40;;;7.70;;
68273;SDS011;55104;47.356;19.448;2023-07-16T12:27:14;10.40;;;7.20;;
68273;SDS011;55104;47.356;19.448;2023-07-16T12:30:19;10.38;;;7.30;;
68273;SDS011;55104;47.356;19.448;2023-07-16T12:33:21;10.57;;;7.55;;
68273;SDS011;55104;47.356;19.448;2023-07-16T12:36:23;11.20;;;7.33;;
68273;SDS011;55104;47.356;19.448;2023-07-16T12:39:25;9.60;;;6.73;;
68273;SDS011;55104;47.356;19.448;2023-07-16T12:42:27;10.93;;;7.20;;
68273;SDS011;55104;47.356;19.448;2023-07-16T12:45:31;11.20;;;7.47;;
68273;SDS011;55104;47.356;19.448;2023-07-16T12:48:33;11.93;;;7.03;;
68273;SDS011;55104;47.356;19.448;2023-07-16T12:51:35;11.00;;;7.40;;
68273;SDS011;55104;47.356;19.448;2023-07-16T12:54:37;10.60;;;7.77;;
68273;SDS011;55104;47.356;19.448;2023-07-16T12:57:39;11.05;;;7.32;;
68273;SDS011;55104;47.356;19.448;2023-07-16T13:00:41;10.90;;;6.88;;
68273;SDS011;55104;47.356;19.448;2023-07-16T13:03:46;10.68;;;7.57;;
68273;SDS011;55104;47.356;19.448;2023-07-16T13:06:48;10.70;;;7.00;;
68273;SDS011;55104;47.356;19.448;2023-07-16T13:09:50;10.87;;;7.63;;
68273;SDS011;55104;47.356;19.448;2023-07-16T13:13:09;10.30;;;6.80;;
68273;SDS011;55104;47.356;19.448;2023-07-16T13:16:11;9.70;;;6.93;;
68273;SDS011;55104;47.356;19.448;2023-07-16T13:19:13;9.98;;;6.90;;
68273;SDS011;55104;47.356;19.448;2023-07-16T13:22:15;11.17;;;7.30;;
68273;SDS011;55104;47.356;19.448;2023-07-16T13:25:17;10.47;;;6.93;;
68273;SDS011;55104;47.356;19.448;2023-07-16T13:28:19;12.85;;;7.65;;
68273;SDS011;55104;47.356;19.448;2023-07-16T13:31:25;11.32;;;7.38;;
68273;SDS011;55104;47.356;19.448;2023-07-16T13:34:27;10.32;;;7.25;;
68273;SDS011;55104;47.356;19.448;2023-07-16T13:37:29;11.77;;;7.40;;
68273;SDS011;55104;47.356;19.448;2023-07-16T13:40:31;12.27;;;6.73;;
68273;SDS011;55104;47.356;19.448;2023-07-16T13:43:33;11.18;;;7.05;;
68273;SDS011;55104;47.356;19.448;2023-07-16T13:46:35;12.55;;;7.68;;
68273;SDS011;55104;47.356;19.448;2023-07-16T13:49:39;12.07;;;8.27;;
68273;SDS011;55104;47.356;19.448;2023-07-16T13:52:41;11.77;;;7.50;;
68273;SDS011;55104;47.356;19.448;2023-07-16T13:55:44;11.63;;;7.87;;
68273;SDS011;55104;47.356;19.448;2023-07-16T13:58:46;10.60;;;7.45;;
68273;SDS011;55104;47.356;19.448;2023-07-16T14:01:58;13.25;;;7.78;;
68273;SDS011;55104;47.356;19.448;2023-07-16T14:05:01;11.45;;;7.78;;
68273;SDS011;55104;47.356;19.448;2023-07-16T14:08:06;10.53;;;7.63;;
68273;SDS011;55104;47.356;19.448;2023-07-16T14:11:08;11.30;;;7.20;;
68273;SDS011;55104;47.356;19.448;2023-07-16T14:14:10;10.55;;;7.30;;
68273;SDS011;55104;47.356;19.448;2023-07-16T14:17:12;11.57;;;7.55;;
68273;SDS011;55104;47.356;19.448;2023-07-16T14:20:14;13.23;;;8.00;;
68273;SDS011;55104;47.356;19.448;2023-07-16T14:23:16;12.00;;;7.67;;
68273;SDS011;55104;47.356;19.448;2023-07-16T14:26:18;11.07;;;7.17;;
68273;SDS011;55104;47.356;19.448;2023-07-16T14:29:21;10.60;;;8.00;;
68273;SDS011;55104;47.356;19.448;2023-07-16T14:32:23;12.57;;;7.72;;
68273;SDS011;55104;47.356;19.448;2023-07-16T14:35:25;16.92;;;9.27;;
68273;SDS011;55104;47.356;19.448;2023-07-16T14:38:38;11.63;;;7.60;;
68273;SDS011;55104;47.356;19.448;2023-07-16T14:41:40;11.87;;;6.63;;
68273;SDS011;55104;47.356;19.448;2023-07-16T14:44:42;12.40;;;7.40;;
68273;SDS011;55104;47.356;19.448;2023-07-16T14:47:44;11.80;;;7.50;;
68273;SDS011;55104;47.356;19.448;2023-07-16T14:50:48;10.40;;;6.18;;
68273;SDS011;55104;47.356;19.448;2023-07-16T14:53:53;12.90;;;6.23;;
68273;SDS011;55104;47.356;19.448;2023-07-16T14:56:55;8.43;;;5.53;;
68273;SDS011;55104;47.356;19.448;2023-07-16T14:59:57;11.70;;;5.50;;
68273;SDS011;55104;47.356;19.448;2023-07-16T15:02:59;8.77;;;5.22;;
68273;SDS011;55104;47.356;19.448;2023-07-16T15:06:02;9.55;;;5.40;;
68273;SDS011;55104;47.356;19.448;2023-07-16T15:09:04;9.43;;;5.30;;
68273;SDS011;55104;47.356;19.448;2023-07-16T15:12:06;9.37;;;5.17;;
68273;SDS011;55104;47.356;19.448;2023-07-16T15:15:10;8.52;;;4.97;;
68273;SDS011;55104;47.356;19.448;2023-07-16T15:18:12;8.93;;;4.65;;
68273;SDS011;55104;47.356;19.448;2023-07-16T15:21:14;7.90;;;4.50;;
68273;SDS011;55104;47.356;19.448;2023-07-16T15:24:16;9.37;;;5.03;;
68273;SDS011;55104;47.356;19.448;2023-07-16T15:27:18;7.93;;;4.70;;
68273;SDS011;55104;47.356;19.448;2023-07-16T15:30:20;7.88;;;4.35;;
68273;SDS011;55104;47.356;19.448;2023-07-16T15:33:22;10.60;;;4.70;;
68273;SDS011;55104;47.356;19.448;2023-07-16T15:36:25;8.15;;;5.20;;
68273;SDS011;55104;47.356;19.448;2023-07-16T15:39:27;9.53;;;5.40;;
68273;SDS011;55104;47.356;19.448;2023-07-16T15:42:29;9.80;;;4.77;;
68273;SDS011;55104;47.356;19.448;2023-07-16T15:45:32;8.60;;;5.30;;
68273;SDS011;55104;47.356;19.448;2023-07-16T15:48:33;8.88;;;4.53;;
68273;SDS011;55104;47.356;19.448;2023-07-16T15:51:36;9.00;;;5.50;;
68273;SDS011;55104;47.356;19.448;2023-07-16T15:54:40;9.03;;;4.93;;
68273;SDS011;55104;47.356;19.448;2023-07-16T15:57:42;9.27;;;4.60;;
68273;SDS011;55104;47.356;19.448;2023-07-16T16:00:45;8.13;;;4.93;;
68273;SDS011;55104;47.356;19.448;2023-07-16T16:03:48;7.95;;;4.80;;
68273;SDS011;55104;47.356;19.448;2023-07-16T16:06:50;7.80;;;4.78;;
68273;SDS011;55104;47.356;19.448;2023-07-16T16:09:52;12.27;;;5.57;;
68273;SDS011;55104;47.356;19.448;2023-07-16T16:12:54;8.53;;;4.97;;
68273;SDS011;55104;47.356;19.448;2023-07-16T16:15:56;7.80;;;4.55;;
68273;SDS011;55104;47.356;19.448;2023-07-16T16:18:58;9.43;;;5.10;;
68273;SDS011;55104;47.356;19.448;2023-07-16T16:22:01;8.02;;;4.63;;
68273;SDS011;55104;47.356;19.448;2023-07-16T16:25:03;9.67;;;4.43;;
68273;SDS011;55104;47.356;19.448;2023-07-16T16:28:06;7.07;;;4.23;;
68273;SDS011;55104;47.356;19.448;2023-07-16T16:31:09;10.25;;;4.85;;
68273;SDS011;55104;47.356;19.448;2023-07-16T16:34:11;13.18;;;5.10;;
68273;SDS011;55104;47.356;19.448;2023-07-16T16:37:14;8.07;;;4.40;;
68273;SDS011;55104;47.356;19.448;2023-07-16T16:40:16;9.27;;;4.27;;
68273;SDS011;55104;47.356;19.448;2023-07-16T16:43:18;8.40;;;4.43;;
68273;SDS011;55104;47.356;19.448;2023-07-16T16:46:20;9.05;;;3.85;;
68273;SDS011;55104;47.356;19.448;2023-07-16T16:49:23;10.00;;;4.28;;
68273;SDS011;55104;47.356;19.448;2023-07-16T16:52:26;7.97;;;4.50;;
68273;SDS011;55104;47.356;19.448;2023-07-16T16:55:28;7.80;;;4.00;;
68273;SDS011;55104;47.356;19.448;2023-07-16T16:58:30;11.73;;;4.80;;
68273;SDS011;55104;47.356;19.448;2023-07-16T17:01:32;8.63;;;4.57;;
68273;SDS011;55104;47.356;19.448;2023-07-16T17:04:37;9.57;;;4.28;;
68273;SDS011;55104;47.356;19.448;2023-07-16T17:07:41;8.80;;;4.47;;
68273;SDS011;55104;47.356;19.448;2023-07-16T17:10:43;7.30;;;4.03;;
68273;SDS011;55104;47.356;19.448;2023-07-16T17:13:45;9.20;;;4.70;;
68273;SDS011;55104;47.356;19.448;2023-07-16T17:16:48;9.13;;;4.30;;
68273;SDS011;55104;47.356;19.448;2023-07-16T17:19:53;8.80;;;4.70;;
68273;SDS011;55104;47.356;19.448;2023-07-16T17:22:56;8.30;;;4.32;;
68273;SDS011;55104;47.356;19.448;2023-07-16T17:26:00;8.00;;;4.20;;
68273;SDS011;55104;47.356;19.448;2023-07-16T17:29:02;9.07;;;4.40;;
68273;SDS011;55104;47.356;19.448;2023-07-16T17:32:06;8.60;;;4.55;;
68273;SDS011;55104;47.356;19.448;2023-07-16T17:35:08;8.55;;;4.70;;
68273;SDS011;55104;47.356;19.448;2023-07-16T17:38:10;8.77;;;4.30;;
68273;SDS011;55104;47.356;19.448;2023-07-16T17:41:12;10.97;;;4.37;;
68273;SDS011;55104;47.356;19.448;2023-07-16T17:44:15;9.33;;;4.37;;
68273;SDS011;55104;47.356;19.448;2023-07-16T17:47:17;10.15;;;4.97;;
68273;SDS011;55104;47.356;19.448;2023-07-16T17:50:19;10.60;;;4.50;;
68273;SDS011;55104;47.356;19.448;2023-07-16T17:53:21;8.73;;;4.45;;
68273;SDS011;55104;47.356;19.448;2023-07-16T17:56:23;10.03;;;4.63;;
68273;SDS011;55104;47.356;19.448;2023-07-16T17:59:25;9.50;;;4.80;;
68273;SDS011;55104;47.356;19.448;2023-07-16T18:02:28;8.88;;;4.70;;
68273;SDS011;55104;47.356;19.448;2023-07-16T18:05:30;9.95;;;4.25;;
68273;SDS011;55104;47.356;19.448;2023-07-16T18:08:32;12.65;;;4.80;;